sensor_id;sensor_type;location;lat;lon;timestamp;pressure;altitude;pressure_sealevel;temperature;humidity
69239;BME280;56349;51.816;-0.026;2023-05-17T00:01:35;102101.55;;;22.85;34.71
69239;BME280;56349;51.816;-0.026;2023-05-17T00:04:01;102101.11;;;22.76;34.81
69239;BME280;56349;51.816;-0.026;2023-05-17T00:06:27;102099.06;;;22.66;34.92
69239;BME280;56349;51.816;-0.026;2023-05-17T00:08:52;102100.71;;;22.60;35.01
69239;BME280;56349;51.816;-0.026;2023-05-17T00:11:18;102099.03;;;22.52;35.11
69239;BME280;56349;51.816;-0.026;2023-05-17T00:13:44;102097.66;;;22.46;35.21
69239;BME280;56349;51.816;-0.026;2023-05-17T00:16:10;102096.16;;;22.42;35.27
69239;BME280;56349;51.816;-0.026;2023-05-17T00:18:36;102095.64;;;22.36;35.33
69239;BME280;56349;51.816;-0.026;2023-05-17T00:21:02;102093.17;;;22.30;35.40
69239;BME280;56349;51.816;-0.026;2023-05-17T00:23:28;102094.94;;;22.24;35.47
69239;BME280;56349;51.816;-0.026;2023-05-17T00:25:54;102096.20;;;22.20;35.52
69239;BME280;56349;51.816;-0.026;2023-05-17T00:28:19;102096.57;;;22.44;35.56
69239;BME280;56349;51.816;-0.026;2023-05-17T00:30:45;102095.64;;;22.14;35.62
69239;BME280;56349;51.816;-0.026;2023-05-17T00:33:11;102093.60;;;22.12;35.63
69239;BME280;56349;51.816;-0.026;2023-05-17T00:35:37;102099.11;;;22.55;35.70
69239;BME280;56349;51.816;-0.026;2023-05-17T00:38:03;102101.27;;;22.51;35.75
69239;BME280;56349;51.816;-0.026;2023-05-17T00:40:29;102102.91;;;22.01;35.78
69239;BME280;56349;51.816;-0.026;2023-05-17T00:42:57;102101.42;;;22.48;35.79
69239;BME280;56349;51.816;-0.026;2023-05-17T00:45:21;102100.20;;;22.24;35.82
69239;BME280;56349;51.816;-0.026;2023-05-17T00:47:47;102097.22;;;21.94;35.86
69239;BME280;56349;51.816;-0.026;2023-05-17T00:50:13;102095.85;;;22.39;35.91
69239;BME280;56349;51.816;-0.026;2023-05-17T00:52:38;102097.63;;;22.13;35.96
69239;BME280;56349;51.816;-0.026;2023-05-17T00:55:03;102100.46;;;22.33;35.99
69239;BME280;56349;51.816;-0.026;2023-05-17T00:57:28;102101.50;;;22.27;36.06
69239;BME280;56349;51.816;-0.026;2023-05-17T00:59:55;102102.41;;;22.21;36.13
69239;BME280;56349;51.816;-0.026;2023-05-17T01:02:20;102101.05;;;21.94;36.17
69239;BME280;56349;51.816;-0.026;2023-05-17T01:04:47;102100.46;;;21.92;36.21
69239;BME280;56349;51.816;-0.026;2023-05-17T01:07:11;102098.97;;;21.90;36.23
69239;BME280;56349;51.816;-0.026;2023-05-17T01:09:37;102099.93;;;21.85;36.29
69239;BME280;56349;51.816;-0.026;2023-05-17T01:12:11;102099.75;;;22.03;36.35
69239;BME280;56349;51.816;-0.026;2023-05-17T01:14:40;102100.42;;;22.02;36.37
69239;BME280;56349;51.816;-0.026;2023-05-17T01:16:58;102099.68;;;22.01;36.38
69239;BME280;56349;51.816;-0.026;2023-05-17T01:19:44;102097.20;;;21.76;36.40
69239;BME280;56349;51.816;-0.026;2023-05-17T01:21:56;102094.71;;;21.93;36.45
69239;BME280;56349;51.816;-0.026;2023-05-17T01:24:23;102095.76;;;21.90;36.48
69239;BME280;56349;51.816;-0.026;2023-05-17T01:26:37;102096.50;;;21.89;36.51
69239;BME280;56349;51.816;-0.026;2023-05-17T01:29:01;102097.32;;;21.87;36.53
69239;BME280;56349;51.816;-0.026;2023-05-17T01:31:27;102095.46;;;21.87;36.55
69239;BME280;56349;51.816;-0.026;2023-05-17T01:33:52;102096.74;;;21.63;36.56
69239;BME280;56349;51.816;-0.026;2023-05-17T01:36:18;102097.84;;;21.84;36.57
69239;BME280;56349;51.816;-0.026;2023-05-17T01:38:44;102100.23;;;21.82;36.58
69239;BME280;56349;51.816;-0.026;2023-05-17T01:41:14;102102.82;;;21.80;36.63
69239;BME280;56349;51.816;-0.026;2023-05-17T01:43:40;102105.47;;;21.79;36.63
69239;BME280;56349;51.816;-0.026;2023-05-17T01:46:09;102104.01;;;21.78;36.64
69239;BME280;56349;51.816;-0.026;2023-05-17T01:48:30;102103.08;;;21.76;36.66
69239;BME280;56349;51.816;-0.026;2023-05-17T01:50:53;102102.61;;;21.72;36.70
69239;BME280;56349;51.816;-0.026;2023-05-17T01:53:22;102105.05;;;21.71;36.72
69239;BME280;56349;51.816;-0.026;2023-05-17T01:55:49;102101.72;;;21.69;36.74
69239;BME280;56349;51.816;-0.026;2023-05-17T01:58:11;102103.74;;;21.88;36.78
69239;BME280;56349;51.816;-0.026;2023-05-17T02:00:35;102105.12;;;21.63;36.80
69239;BME280;56349;51.816;-0.026;2023-05-17T02:03:00;102109.14;;;21.62;36.86
69239;BME280;56349;51.816;-0.026;2023-05-17T02:05:26;102108.62;;;21.63;36.97
69239;BME280;56349;51.816;-0.026;2023-05-17T02:07:52;102114.32;;;21.69;37.01
69239;BME280;56349;51.816;-0.026;2023-05-17T02:10:18;102118.11;;;21.76;37.13
69239;BME280;56349;51.816;-0.026;2023-05-17T02:12:44;102122.67;;;21.86;37.31
69239;BME280;56349;51.816;-0.026;2023-05-17T02:15:10;102122.35;;;22.04;37.41
69239;BME280;56349;51.816;-0.026;2023-05-17T02:17:36;102126.10;;;21.84;37.39
69239;BME280;56349;51.816;-0.026;2023-05-17T02:20:03;102124.80;;;22.15;37.37
69239;BME280;56349;51.816;-0.026;2023-05-17T02:22:27;102129.20;;;22.52;37.54
69239;BME280;56349;51.816;-0.026;2023-05-17T02:24:53;102131.43;;;22.65;37.52
69239;BME280;56349;51.816;-0.026;2023-05-17T02:27:19;102129.94;;;23.22;37.33
69239;BME280;56349;51.816;-0.026;2023-05-17T02:29:45;102128.72;;;23.08;36.99
69239;BME280;56349;51.816;-0.026;2023-05-17T02:32:12;102129.75;;;23.44;36.58
69239;BME280;56349;51.816;-0.026;2023-05-17T02:34:36;102131.60;;;23.79;36.18
69239;BME280;56349;51.816;-0.026;2023-05-17T02:37:03;102124.63;;;23.87;35.79
69239;BME280;56349;51.816;-0.026;2023-05-17T02:39:28;102125.87;;;24.42;35.40
69239;BME280;56349;51.816;-0.026;2023-05-17T02:41:53;102126.94;;;24.25;35.01
69239;BME280;56349;51.816;-0.026;2023-05-17T02:44:19;102119.82;;;24.50;34.67
69239;BME280;56349;51.816;-0.026;2023-05-17T02:46:45;102120.77;;;24.74;34.34
69239;BME280;56349;51.816;-0.026;2023-05-17T02:49:11;102125.17;;;24.69;34.01
69239;BME280;56349;51.816;-0.026;2023-05-17T02:51:37;102132.34;;;24.90;33.72
69239;BME280;56349;51.816;-0.026;2023-05-17T02:54:03;102130.50;;;24.86;33.44
69239;BME280;56349;51.816;-0.026;2023-05-17T02:56:28;102129.01;;;25.03;33.20
69239;BME280;56349;51.816;-0.026;2023-05-17T02:58:54;102125.56;;;25.19;32.97
69239;BME280;56349;51.816;-0.026;2023-05-17T03:01:20;102127.48;;;25.55;32.74
69239;BME280;56349;51.816;-0.026;2023-05-17T03:03:46;102130.24;;;25.46;32.53
69239;BME280;56349;51.816;-0.026;2023-05-17T03:06:12;102134.65;;;25.58;32.35
69239;BME280;56349;51.816;-0.026;2023-05-17T03:08:38;102134.06;;;25.47;32.15
69239;BME280;56349;51.816;-0.026;2023-05-17T03:11:04;102132.60;;;25.76;32.00
69239;BME280;56349;51.816;-0.026;2023-05-17T03:13:30;102131.71;;;25.82;31.85
69239;BME280;56349;51.816;-0.026;2023-05-17T03:15:56;102131.26;;;25.39;31.74
69239;BME280;56349;51.816;-0.026;2023-05-17T03:18:22;102134.20;;;25.75;31.58
69239;BME280;56349;51.816;-0.026;2023-05-17T03:20:48;102136.22;;;25.79;31.47
69239;BME280;56349;51.816;-0.026;2023-05-17T03:23:14;102135.28;;;25.57;31.37
69239;BME280;56349;51.816;-0.026;2023-05-17T03:25:40;102136.62;;;25.61;31.26
69239;BME280;56349;51.816;-0.026;2023-05-17T03:28:06;102137.98;;;25.67;31.15
69239;BME280;56349;51.816;-0.026;2023-05-17T03:30:32;102139.58;;;25.71;31.04
69239;BME280;56349;51.816;-0.026;2023-05-17T03:32:58;102136.31;;;26.04;30.93
69239;BME280;56349;51.816;-0.026;2023-05-17T03:35:24;102136.94;;;25.86;30.80
69239;BME280;56349;51.816;-0.026;2023-05-17T03:37:50;102138.22;;;25.93;30.65
69239;BME280;56349;51.816;-0.026;2023-05-17T03:40:16;102143.50;;;26.26;30.54
69239;BME280;56349;51.816;-0.026;2023-05-17T03:42:42;102148.70;;;26.03;30.44
69239;BME280;56349;51.816;-0.026;2023-05-17T03:45:08;102151.06;;;26.07;30.34
69239;BME280;56349;51.816;-0.026;2023-05-17T03:47:42;102151.83;;;26.12;30.25
69239;BME280;56349;51.816;-0.026;2023-05-17T03:49:59;102152.98;;;26.13;30.19
69239;BME280;56349;51.816;-0.026;2023-05-17T03:52:25;102157.50;;;26.17;30.10
69239;BME280;56349;51.816;-0.026;2023-05-17T03:54:51;102158.84;;;26.19;30.04
69239;BME280;56349;51.816;-0.026;2023-05-17T03:57:17;102162.19;;;26.21;29.97
69239;BME280;56349;51.816;-0.026;2023-05-17T03:59:42;102162.52;;;26.22;29.91
69239;BME280;56349;51.816;-0.026;2023-05-17T04:02:08;102165.66;;;26.21;29.87
69239;BME280;56349;51.816;-0.026;2023-05-17T04:04:34;102167.56;;;26.20;29.84
69239;BME280;56349;51.816;-0.026;2023-05-17T04:07:00;102167.09;;;26.18;29.83
69239;BME280;56349;51.816;-0.026;2023-05-17T04:09:26;102166.30;;;26.17;29.79
69239;BME280;56349;51.816;-0.026;2023-05-17T04:11:52;102168.20;;;26.17;29.76
69239;BME280;56349;51.816;-0.026;2023-05-17T04:14:18;102169.93;;;26.16;29.74
69239;BME280;56349;51.816;-0.026;2023-05-17T04:16:44;102170.19;;;26.16;29.70
69239;BME280;56349;51.816;-0.026;2023-05-17T04:19:10;102172.07;;;26.16;29.66
69239;BME280;56349;51.816;-0.026;2023-05-17T04:21:36;102176.95;;;26.19;29.61
69239;BME280;56349;51.816;-0.026;2023-05-17T04:24:02;102179.70;;;26.21;29.55
69239;BME280;56349;51.816;-0.026;2023-05-17T04:26:27;102179.89;;;26.19;29.54
69239;BME280;56349;51.816;-0.026;2023-05-17T04:28:53;102184.40;;;26.21;29.49
69239;BME280;56349;51.816;-0.026;2023-05-17T04:31:19;102182.17;;;26.24;29.44
69239;BME280;56349;51.816;-0.026;2023-05-17T04:33:45;102183.95;;;26.28;29.39
69239;BME280;56349;51.816;-0.026;2023-05-17T04:36:11;102185.75;;;26.30;29.32
69239;BME280;56349;51.816;-0.026;2023-05-17T04:38:37;102189.84;;;26.33;29.26
69239;BME280;56349;51.816;-0.026;2023-05-17T04:41:04;102191.79;;;26.14;29.21
69239;BME280;56349;51.816;-0.026;2023-05-17T04:43:30;102194.21;;;26.36;29.18
69239;BME280;56349;51.816;-0.026;2023-05-17T04:45:55;102199.18;;;26.39;29.11
69239;BME280;56349;51.816;-0.026;2023-05-17T04:48:20;102201.05;;;26.38;29.08
69239;BME280;56349;51.816;-0.026;2023-05-17T04:50:46;102198.68;;;26.37;29.08
69239;BME280;56349;51.816;-0.026;2023-05-17T04:53:12;102196.72;;;26.35;29.07
69239;BME280;56349;51.816;-0.026;2023-05-17T04:55:38;102196.96;;;26.16;29.01
69239;BME280;56349;51.816;-0.026;2023-05-17T04:58:04;102197.53;;;26.40;28.96
69239;BME280;56349;51.816;-0.026;2023-05-17T05:00:29;102200.06;;;26.39;28.95
69239;BME280;56349;51.816;-0.026;2023-05-17T05:02:55;102202.24;;;26.40;28.90
69239;BME280;56349;51.816;-0.026;2023-05-17T05:05:21;102203.19;;;26.35;28.93
69239;BME280;56349;51.816;-0.026;2023-05-17T05:07:47;102204.91;;;26.33;28.92
69239;BME280;56349;51.816;-0.026;2023-05-17T05:10:13;102205.83;;;26.29;28.88
69239;BME280;56349;51.816;-0.026;2023-05-17T05:12:39;102211.13;;;25.97;28.86
69239;BME280;56349;51.816;-0.026;2023-05-17T05:15:06;102211.30;;;26.05;28.89
69239;BME280;56349;51.816;-0.026;2023-05-17T05:17:32;102208.56;;;25.86;28.93
69239;BME280;56349;51.816;-0.026;2023-05-17T05:19:57;102209.26;;;25.63;29.05
69239;BME280;56349;51.816;-0.026;2023-05-17T05:22:23;102212.06;;;25.61;29.22
69239;BME280;56349;51.816;-0.026;2023-05-17T05:24:49;102215.49;;;25.28;29.43
69239;BME280;56349;51.816;-0.026;2023-05-17T05:27:15;102218.82;;;25.18;29.64
69239;BME280;56349;51.816;-0.026;2023-05-17T05:29:41;102224.05;;;25.07;29.87
69239;BME280;56349;51.816;-0.026;2023-05-17T05:32:07;102226.92;;;24.76;30.10
69239;BME280;56349;51.816;-0.026;2023-05-17T05:34:31;102232.80;;;24.75;30.32
69239;BME280;56349;51.816;-0.026;2023-05-17T05:36:57;102235.54;;;24.21;30.54
69239;BME280;56349;51.816;-0.026;2023-05-17T05:39:22;102241.64;;;24.28;30.74
69239;BME280;56349;51.816;-0.026;2023-05-17T05:41:48;102244.66;;;24.01;30.97
69239;BME280;56349;51.816;-0.026;2023-05-17T05:44:14;102247.97;;;23.98;31.22
69239;BME280;56349;51.816;-0.026;2023-05-17T05:46:40;102249.05;;;23.97;31.46
69239;BME280;56349;51.816;-0.026;2023-05-17T05:49:06;102249.79;;;23.76;31.66
69239;BME280;56349;51.816;-0.026;2023-05-17T05:51:32;102247.83;;;23.55;31.87
69239;BME280;56349;51.816;-0.026;2023-05-17T05:53:58;102250.63;;;23.86;32.07
69239;BME280;56349;51.816;-0.026;2023-05-17T05:56:24;102251.78;;;23.18;32.29
69239;BME280;56349;51.816;-0.026;2023-05-17T05:58:50;102249.54;;;23.00;32.57
69239;BME280;56349;51.816;-0.026;2023-05-17T06:01:16;102251.91;;;23.07;32.79
69239;BME280;56349;51.816;-0.026;2023-05-17T06:03:42;102252.15;;;23.10;33.02
69239;BME280;56349;51.816;-0.026;2023-05-17T06:06:08;102255.07;;;22.92;33.26
69239;BME280;56349;51.816;-0.026;2023-05-17T06:08:33;102255.24;;;22.77;33.51
69239;BME280;56349;51.816;-0.026;2023-05-17T06:10:59;102254.33;;;22.62;33.75
69239;BME280;56349;51.816;-0.026;2023-05-17T06:13:31;102252.78;;;22.53;33.97
69239;BME280;56349;51.816;-0.026;2023-05-17T06:15:51;102254.30;;;22.44;34.16
69239;BME280;56349;51.816;-0.026;2023-05-17T06:18:17;102254.55;;;22.14;34.35
69239;BME280;56349;51.816;-0.026;2023-05-17T06:20:43;102256.25;;;22.28;34.51
69239;BME280;56349;51.816;-0.026;2023-05-17T06:23:09;102255.83;;;22.17;34.63
69239;BME280;56349;51.816;-0.026;2023-05-17T06:25:35;102259.62;;;22.09;34.82
69239;BME280;56349;51.816;-0.026;2023-05-17T06:28:01;102263.21;;;22.28;34.93
69239;BME280;56349;51.816;-0.026;2023-05-17T06:30:26;102266.01;;;22.22;35.04
69239;BME280;56349;51.816;-0.026;2023-05-17T06:32:52;102268.47;;;22.16;35.12
69239;BME280;56349;51.816;-0.026;2023-05-17T06:35:18;102267.20;;;21.81;35.22
69239;BME280;56349;51.816;-0.026;2023-05-17T06:37:45;102269.15;;;22.00;35.30
69239;BME280;56349;51.816;-0.026;2023-05-17T06:40:10;102270.04;;;22.15;35.42
69239;BME280;56349;51.816;-0.026;2023-05-17T06:42:35;102268.20;;;22.11;35.48
69239;BME280;56349;51.816;-0.026;2023-05-17T06:45:01;102268.66;;;21.83;35.56
69239;BME280;56349;51.816;-0.026;2023-05-17T06:47:26;102272.55;;;21.79;35.63
69239;BME280;56349;51.816;-0.026;2023-05-17T06:49:52;102274.25;;;21.93;35.72
69239;BME280;56349;51.816;-0.026;2023-05-17T06:52:18;102278.43;;;21.57;35.89
69239;BME280;56349;51.816;-0.026;2023-05-17T06:54:44;102279.87;;;21.69;36.03
69239;BME280;56349;51.816;-0.026;2023-05-17T06:57:10;102281.83;;;21.59;36.16
69239;BME280;56349;51.816;-0.026;2023-05-17T06:59:36;102283.44;;;21.53;36.25
69239;BME280;56349;51.816;-0.026;2023-05-17T07:02:02;102283.23;;;21.55;36.25
69239;BME280;56349;51.816;-0.026;2023-05-17T07:04:27;102285.20;;;21.55;36.27
69239;BME280;56349;51.816;-0.026;2023-05-17T07:06:53;102285.23;;;21.77;36.31
69239;BME280;56349;51.816;-0.026;2023-05-17T07:09:20;102287.03;;;21.53;36.34
69239;BME280;56349;51.816;-0.026;2023-05-17T07:11:44;102289.53;;;21.52;36.36
69239;BME280;56349;51.816;-0.026;2023-05-17T07:14:10;102288.84;;;21.49;36.43
69239;BME280;56349;51.816;-0.026;2023-05-17T07:16:36;102289.34;;;21.47;36.60
69239;BME280;56349;51.816;-0.026;2023-05-17T07:19:02;102291.96;;;21.68;36.75
69239;BME280;56349;51.816;-0.026;2023-05-17T07:21:28;102293.26;;;21.41;36.92
69239;BME280;56349;51.816;-0.026;2023-05-17T07:23:54;102295.44;;;21.35;37.08
69239;BME280;56349;51.816;-0.026;2023-05-17T07:26:21;102292.82;;;21.36;37.16
69239;BME280;56349;51.816;-0.026;2023-05-17T07:28:45;102293.49;;;21.37;37.21
69239;BME280;56349;51.816;-0.026;2023-05-17T07:31:11;102293.57;;;21.37;37.25
69239;BME280;56349;51.816;-0.026;2023-05-17T07:33:38;102292.97;;;21.35;37.33
69239;BME280;56349;51.816;-0.026;2023-05-17T07:36:04;102294.90;;;21.55;37.39
69239;BME280;56349;51.816;-0.026;2023-05-17T07:38:29;102301.65;;;21.54;37.46
69239;BME280;56349;51.816;-0.026;2023-05-17T07:40:55;102310.66;;;21.55;37.49
69239;BME280;56349;51.816;-0.026;2023-05-17T07:43:21;102315.88;;;21.52;37.58
69239;BME280;56349;51.816;-0.026;2023-05-17T07:45:47;102316.18;;;21.27;37.73
69239;BME280;56349;51.816;-0.026;2023-05-17T07:48:13;102313.69;;;21.30;37.72
69239;BME280;56349;51.816;-0.026;2023-05-17T07:50:40;102313.41;;;21.54;37.76
69239;BME280;56349;51.816;-0.026;2023-05-17T07:53:04;102316.30;;;21.31;37.72
69239;BME280;56349;51.816;-0.026;2023-05-17T07:55:35;102317.96;;;21.29;37.70
69239;BME280;56349;51.816;-0.026;2023-05-17T07:57:55;102319.65;;;21.77;37.68
69239;BME280;56349;51.816;-0.026;2023-05-17T08:00:22;102320.07;;;21.25;37.67
69239;BME280;56349;51.816;-0.026;2023-05-17T08:02:47;102322.81;;;21.38;37.74
69239;BME280;56349;51.816;-0.026;2023-05-17T08:05:13;102323.86;;;21.29;37.89
69239;BME280;56349;51.816;-0.026;2023-05-17T08:07:39;102325.33;;;21.28;37.87
69239;BME280;56349;51.816;-0.026;2023-05-17T08:10:06;102322.95;;;21.57;37.83
69239;BME280;56349;51.816;-0.026;2023-05-17T08:12:30;102319.76;;;21.29;37.83
69239;BME280;56349;51.816;-0.026;2023-05-17T08:14:57;102317.46;;;21.54;37.87
69239;BME280;56349;51.816;-0.026;2023-05-17T08:17:23;102319.45;;;21.27;37.86
69239;BME280;56349;51.816;-0.026;2023-05-17T08:19:49;102318.19;;;21.29;37.80
69239;BME280;56349;51.816;-0.026;2023-05-17T08:22:15;102317.27;;;21.06;37.77
69239;BME280;56349;51.816;-0.026;2023-05-17T08:24:41;102318.47;;;21.29;37.77
69239;BME280;56349;51.816;-0.026;2023-05-17T08:27:07;102316.17;;;21.56;37.80
69239;BME280;56349;51.816;-0.026;2023-05-17T08:29:33;102318.84;;;21.06;37.81
69239;BME280;56349;51.816;-0.026;2023-05-17T08:31:58;102317.23;;;21.29;37.84
69239;BME280;56349;51.816;-0.026;2023-05-17T08:34:24;102315.62;;;21.29;37.85
69239;BME280;56349;51.816;-0.026;2023-05-17T08:36:50;102318.53;;;21.08;37.84
69239;BME280;56349;51.816;-0.026;2023-05-17T08:39:16;102321.09;;;21.01;37.92
69239;BME280;56349;51.816;-0.026;2023-05-17T08:41:42;102322.65;;;21.44;38.03
69239;BME280;56349;51.816;-0.026;2023-05-17T08:44:08;102321.44;;;21.40;38.06
69239;BME280;56349;51.816;-0.026;2023-05-17T08:46:34;102321.53;;;21.42;38.03
69239;BME280;56349;51.816;-0.026;2023-05-17T08:48:59;102320.53;;;21.18;38.00
69239;BME280;56349;51.816;-0.026;2023-05-17T08:51:26;102321.72;;;21.47;37.94
69239;BME280;56349;51.816;-0.026;2023-05-17T08:53:51;102320.42;;;21.01;37.90
69239;BME280;56349;51.816;-0.026;2023-05-17T08:56:16;102316.46;;;21.24;37.87
69239;BME280;56349;51.816;-0.026;2023-05-17T08:58:42;102313.91;;;21.25;37.84
69239;BME280;56349;51.816;-0.026;2023-05-17T09:01:08;102314.38;;;21.27;37.82
69239;BME280;56349;51.816;-0.026;2023-05-17T09:03:35;102313.73;;;21.53;37.79
69239;BME280;56349;51.816;-0.026;2023-05-17T09:06:00;102314.34;;;21.26;37.79
69239;BME280;56349;51.816;-0.026;2023-05-17T09:08:26;102315.15;;;21.28;37.75
69239;BME280;56349;51.816;-0.026;2023-05-17T09:10:51;102312.69;;;21.29;37.73
69239;BME280;56349;51.816;-0.026;2023-05-17T09:13:17;102314.60;;;21.07;37.71
69239;BME280;56349;51.816;-0.026;2023-05-17T09:15:44;102316.57;;;21.31;37.69
69239;BME280;56349;51.816;-0.026;2023-05-17T09:18:10;102314.26;;;21.32;37.67
69239;BME280;56349;51.816;-0.026;2023-05-17T09:20:35;102310.43;;;21.34;37.63
69239;BME280;56349;51.816;-0.026;2023-05-17T09:23:02;102310.71;;;21.11;37.63
69239;BME280;56349;51.816;-0.026;2023-05-17T09:25:28;102308.64;;;21.33;37.63
69239;BME280;56349;51.816;-0.026;2023-05-17T09:27:52;102307.01;;;21.34;37.62
69239;BME280;56349;51.816;-0.026;2023-05-17T09:30:17;102308.28;;;21.12;37.60
69239;BME280;56349;51.816;-0.026;2023-05-17T09:32:44;102309.51;;;21.11;37.62
69239;BME280;56349;51.816;-0.026;2023-05-17T09:35:09;102308.12;;;21.13;37.62
69239;BME280;56349;51.816;-0.026;2023-05-17T09:37:36;102315.12;;;21.15;37.61
69239;BME280;56349;51.816;-0.026;2023-05-17T09:40:00;102309.42;;;21.41;37.58
69239;BME280;56349;51.816;-0.026;2023-05-17T09:42:25;102305.33;;;21.22;37.63
69239;BME280;56349;51.816;-0.026;2023-05-17T09:44:51;102302.77;;;21.45;37.83
69239;BME280;56349;51.816;-0.026;2023-05-17T09:47:22;102306.04;;;21.25;37.98
69239;BME280;56349;51.816;-0.026;2023-05-17T09:49:41;102300.94;;;21.29;38.02
69239;BME280;56349;51.816;-0.026;2023-05-17T09:52:07;102302.57;;;21.32;38.03
69239;BME280;56349;51.816;-0.026;2023-05-17T09:54:37;102296.98;;;21.28;38.09
69239;BME280;56349;51.816;-0.026;2023-05-17T09:56:59;102300.30;;;21.47;38.17
69239;BME280;56349;51.816;-0.026;2023-05-17T09:59:26;102303.84;;;21.45;38.21
69239;BME280;56349;51.816;-0.026;2023-05-17T10:01:50;102302.30;;;21.45;38.26
69239;BME280;56349;51.816;-0.026;2023-05-17T10:04:17;102303.92;;;21.46;38.27
69239;BME280;56349;51.816;-0.026;2023-05-17T10:06:41;102302.68;;;21.45;38.34
69239;BME280;56349;51.816;-0.026;2023-05-17T10:09:08;102299.34;;;21.45;38.42
69239;BME280;56349;51.816;-0.026;2023-05-17T10:11:33;102297.20;;;21.73;38.58
69239;BME280;56349;51.816;-0.026;2023-05-17T10:14:01;102295.23;;;21.49;38.68
69239;BME280;56349;51.816;-0.026;2023-05-17T10:16:22;102299.48;;;21.77;38.76
69239;BME280;56349;51.816;-0.026;2023-05-17T10:18:48;102293.50;;;21.55;38.85
69239;BME280;56349;51.816;-0.026;2023-05-17T10:21:13;102295.36;;;21.39;38.85
69239;BME280;56349;51.816;-0.026;2023-05-17T10:23:39;102295.73;;;21.67;38.89
69239;BME280;56349;51.816;-0.026;2023-05-17T10:26:05;102297.68;;;21.72;38.82
69239;BME280;56349;51.816;-0.026;2023-05-17T10:28:32;102295.45;;;21.76;38.76
69239;BME280;56349;51.816;-0.026;2023-05-17T10:30:57;102291.99;;;21.80;38.72
69239;BME280;56349;51.816;-0.026;2023-05-17T10:33:21;102291.35;;;21.83;38.69
69239;BME280;56349;51.816;-0.026;2023-05-17T10:35:48;102294.81;;;21.84;38.66
69239;BME280;56349;51.816;-0.026;2023-05-17T10:38:13;102290.59;;;21.85;38.65
69239;BME280;56349;51.816;-0.026;2023-05-17T10:40:39;102288.24;;;21.63;38.63
69239;BME280;56349;51.816;-0.026;2023-05-17T10:43:04;102287.76;;;21.65;38.61
69239;BME280;56349;51.816;-0.026;2023-05-17T10:45:30;102285.82;;;21.88;38.59
69239;BME280;56349;51.816;-0.026;2023-05-17T10:47:55;102283.63;;;21.67;38.59
69239;BME280;56349;51.816;-0.026;2023-05-17T10:50:22;102280.01;;;21.91;38.58
69239;BME280;56349;51.816;-0.026;2023-05-17T10:52:47;102278.97;;;21.71;38.58
69239;BME280;56349;51.816;-0.026;2023-05-17T10:55:10;102278.59;;;21.75;38.67
69239;BME280;56349;51.816;-0.026;2023-05-17T10:57:37;102275.02;;;22.09;38.82
69239;BME280;56349;51.816;-0.026;2023-05-17T11:00:05;102274.72;;;22.04;38.59
69239;BME280;56349;51.816;-0.026;2023-05-17T11:02:29;102276.69;;;22.29;38.55
69239;BME280;56349;51.816;-0.026;2023-05-17T11:04:53;102274.36;;;22.57;38.28
69239;BME280;56349;51.816;-0.026;2023-05-17T11:07:22;102275.68;;;22.69;38.22
69239;BME280;56349;51.816;-0.026;2023-05-17T11:09:48;102274.17;;;22.83;37.80
69239;BME280;56349;51.816;-0.026;2023-05-17T11:12:12;102277.14;;;23.05;37.35
69239;BME280;56349;51.816;-0.026;2023-05-17T11:14:46;102272.85;;;23.69;36.94
69239;BME280;56349;51.816;-0.026;2023-05-17T11:17:11;102275.47;;;23.61;36.52
69239;BME280;56349;51.816;-0.026;2023-05-17T11:19:26;102268.46;;;24.02;36.10
69239;BME280;56349;51.816;-0.026;2023-05-17T11:21:52;102261.90;;;23.97;35.78
69239;BME280;56349;51.816;-0.026;2023-05-17T11:24:24;102268.69;;;24.76;35.42
69239;BME280;56349;51.816;-0.026;2023-05-17T11:26:45;102273.19;;;24.83;35.07
69239;BME280;56349;51.816;-0.026;2023-05-17T11:29:10;102266.24;;;24.91;34.70
69239;BME280;56349;51.816;-0.026;2023-05-17T11:31:36;102258.35;;;24.92;34.39
69239;BME280;56349;51.816;-0.026;2023-05-17T11:34:02;102258.55;;;25.18;34.08
69239;BME280;56349;51.816;-0.026;2023-05-17T11:36:26;102259.14;;;25.44;33.69
69239;BME280;56349;51.816;-0.026;2023-05-17T11:41:20;102251.95;;;25.41;33.05
69239;BME280;56349;51.816;-0.026;2023-05-17T11:43:45;102249.03;;;25.61;32.75
69239;BME280;56349;51.816;-0.026;2023-05-17T11:48:35;102251.52;;;25.94;32.25
69239;BME280;56349;51.816;-0.026;2023-05-17T11:51:00;102244.57;;;26.12;32.01
69239;BME280;56349;51.816;-0.026;2023-05-17T11:53:26;102240.41;;;26.01;31.76
69239;BME280;56349;51.816;-0.026;2023-05-17T11:55:51;102236.49;;;26.12;31.58
69239;BME280;56349;51.816;-0.026;2023-05-17T11:58:18;102235.16;;;26.21;31.43
69239;BME280;56349;51.816;-0.026;2023-05-17T12:00:43;102238.56;;;26.32;31.29
69239;BME280;56349;51.816;-0.026;2023-05-17T12:03:15;102237.69;;;26.44;31.15
69239;BME280;56349;51.816;-0.026;2023-05-17T12:05:35;102232.43;;;26.55;31.03
69239;BME280;56349;51.816;-0.026;2023-05-17T12:07:59;102234.95;;;26.67;30.88
69239;BME280;56349;51.816;-0.026;2023-05-17T12:10:25;102233.80;;;26.75;30.74
69239;BME280;56349;51.816;-0.026;2023-05-17T12:12:51;102231.61;;;26.84;30.58
69239;BME280;56349;51.816;-0.026;2023-05-17T12:15:18;102231.98;;;26.92;30.43
69239;BME280;56349;51.816;-0.026;2023-05-17T12:17:44;102232.43;;;27.00;30.32
69239;BME280;56349;51.816;-0.026;2023-05-17T12:20:09;102234.03;;;27.08;30.16
69239;BME280;56349;51.816;-0.026;2023-05-17T12:25:00;102232.28;;;27.00;29.94
69239;BME280;56349;51.816;-0.026;2023-05-17T12:27:26;102231.87;;;26.79;29.84
69239;BME280;56349;51.816;-0.026;2023-05-17T12:29:52;102233.93;;;27.08;29.75
69239;BME280;56349;51.816;-0.026;2023-05-17T12:32:18;102232.06;;;27.10;29.68
69239;BME280;56349;51.816;-0.026;2023-05-17T12:34:44;102231.96;;;27.35;29.60
69239;BME280;56349;51.816;-0.026;2023-05-17T12:37:10;102231.69;;;27.14;29.57
69239;BME280;56349;51.816;-0.026;2023-05-17T12:39:35;102232.04;;;26.94;29.47